sensor_id;sensor_type;location;lat;lon;timestamp;temperature;humidity
21849;DHT22;11089;49.852;19.700;2022-10-16T00:02:52;13.70;1.00
21849;DHT22;11089;49.852;19.700;2022-10-16T00:05:53;13.70;1.00
21849;DHT22;11089;49.852;19.700;2022-10-16T00:08:54;13.70;1.00
21849;DHT22;11089;49.852;19.700;2022-10-16T00:11:55;13.60;1.00
21849;DHT22;11089;49.852;19.700;2022-10-16T00:14:56;13.70;1.00
21849;DHT22;11089;49.852;19.700;2022-10-16T00:17:56;13.80;1.00
21849;DHT22;11089;49.852;19.700;2022-10-16T00:21:14;13.80;1.00
21849;DHT22;11089;49.852;19.700;2022-10-16T00:24:15;13.80;1.00
21849;DHT22;11089;49.852;19.700;2022-10-16T00:27:16;13.80;99.90
21849;DHT22;11089;49.852;19.700;2022-10-16T00:30:17;13.90;1.00
21849;DHT22;11089;49.852;19.700;2022-10-16T00:33:18;13.80;1.00
21849;DHT22;11089;49.852;19.700;2022-10-16T00:36:21;13.90;1.00
21849;DHT22;11089;49.852;19.700;2022-10-16T00:39:22;14.00;1.00
21849;DHT22;11089;49.852;19.700;2022-10-16T00:42:24;13.90;1.00
21849;DHT22;11089;49.852;19.700;2022-10-16T00:45:24;13.90;1.00
21849;DHT22;11089;49.852;19.700;2022-10-16T00:48:25;13.80;1.00
21849;DHT22;11089;49.852;19.700;2022-10-16T00:51:36;13.70;99.90
21849;DHT22;11089;49.852;19.700;2022-10-16T00:54:37;13.60;99.90
21849;DHT22;11089;49.852;19.700;2022-10-16T00:57:39;13.60;1.00
21849;DHT22;11089;49.852;19.700;2022-10-16T01:00:40;13.60;1.00
21849;DHT22;11089;49.852;19.700;2022-10-16T01:03:41;13.70;99.90
21849;DHT22;11089;49.852;19.700;2022-10-16T01:06:52;13.60;1.00
21849;DHT22;11089;49.852;19.700;2022-10-16T01:13:11;13.70;1.00
21849;DHT22;11089;49.852;19.700;2022-10-16T01:16:43;13.80;99.90
21849;DHT22;11089;49.852;19.700;2022-10-16T01:20:03;13.70;1.00
21849;DHT22;11089;49.852;19.700;2022-10-16T01:23:27;13.90;37.30
21849;DHT22;11089;49.852;19.700;2022-10-16T01:33:01;14.10;99.90
21849;DHT22;11089;49.852;19.700;2022-10-16T01:36:18;14.10;1.00
21849;DHT22;11089;49.852;19.700;2022-10-16T01:39:29;14.20;1.00
21849;DHT22;11089;49.852;19.700;2022-10-16T01:42:40;14.20;1.00
21849;DHT22;11089;49.852;19.700;2022-10-16T01:45:45;14.20;1.00
21849;DHT22;11089;49.852;19.700;2022-10-16T01:48:48;14.30;99.90
21849;DHT22;11089;49.852;19.700;2022-10-16T01:51:53;14.20;1.00
21849;DHT22;11089;49.852;19.700;2022-10-16T01:54:56;14.20;1.00
21849;DHT22;11089;49.852;19.700;2022-10-16T01:57:59;14.20;1.00
21849;DHT22;11089;49.852;19.700;2022-10-16T02:01:03;14.30;99.90
21849;DHT22;11089;49.852;19.700;2022-10-16T02:04:55;14.30;99.90
21849;DHT22;11089;49.852;19.700;2022-10-16T02:07:29;14.30;1.00
21849;DHT22;11089;49.852;19.700;2022-10-16T02:10:30;14.30;1.00
21849;DHT22;11089;49.852;19.700;2022-10-16T02:13:39;14.10;1.00
21849;DHT22;11089;49.852;19.700;2022-10-16T02:16:45;14.10;1.00
21849;DHT22;11089;49.852;19.700;2022-10-16T02:19:48;14.10;1.00
21849;DHT22;11089;49.852;19.700;2022-10-16T02:22:50;14.20;1.00
21849;DHT22;11089;49.852;19.700;2022-10-16T02:25:53;14.20;1.00
21849;DHT22;11089;49.852;19.700;2022-10-16T02:29:02;14.20;1.00
21849;DHT22;11089;49.852;19.700;2022-10-16T02:32:06;14.20;1.00
21849;DHT22;11089;49.852;19.700;2022-10-16T02:35:09;14.30;99.90
21849;DHT22;11089;49.852;19.700;2022-10-16T02:38:11;14.30;40.90
21849;DHT22;11089;49.852;19.700;2022-10-16T02:41:14;14.30;99.90
21849;DHT22;11089;49.852;19.700;2022-10-16T02:44:15;14.40;93.50
21849;DHT22;11089;49.852;19.700;2022-10-16T02:47:16;14.40;1.00
21849;DHT22;11089;49.852;19.700;2022-10-16T02:50:17;14.40;1.00
21849;DHT22;11089;49.852;19.700;2022-10-16T02:53:18;14.40;1.00
21849;DHT22;11089;49.852;19.700;2022-10-16T02:56:18;14.40;99.90
21849;DHT22;11089;49.852;19.700;2022-10-16T02:59:19;14.40;99.90
21849;DHT22;11089;49.852;19.700;2022-10-16T03:02:20;14.40;1.00
21849;DHT22;11089;49.852;19.700;2022-10-16T03:05:21;14.50;1.00
21849;DHT22;11089;49.852;19.700;2022-10-16T03:08:22;14.50;1.00
21849;DHT22;11089;49.852;19.700;2022-10-16T03:11:25;14.50;1.00
21849;DHT22;11089;49.852;19.700;2022-10-16T03:14:26;14.60;1.00
21849;DHT22;11089;49.852;19.700;2022-10-16T03:17:27;14.50;48.80
21849;DHT22;11089;49.852;19.700;2022-10-16T03:20:28;14.50;1.00
21849;DHT22;11089;49.852;19.700;2022-10-16T03:23:29;14.50;16.10
21849;DHT22;11089;49.852;19.700;2022-10-16T03:26:30;14.40;96.80
21849;DHT22;11089;49.852;19.700;2022-10-16T03:29:31;14.40;99.90
21849;DHT22;11089;49.852;19.700;2022-10-16T03:32:32;14.40;99.90
21849;DHT22;11089;49.852;19.700;2022-10-16T03:35:33;14.20;1.00
21849;DHT22;11089;49.852;19.700;2022-10-16T03:41:40;14.10;1.00
21849;DHT22;11089;49.852;19.700;2022-10-16T03:44:41;14.00;1.00
21849;DHT22;11089;49.852;19.700;2022-10-16T03:47:42;13.80;99.90
21849;DHT22;11089;49.852;19.700;2022-10-16T03:50:43;13.60;1.00
21849;DHT22;11089;49.852;19.700;2022-10-16T03:53:44;13.60;1.00
21849;DHT22;11089;49.852;19.700;2022-10-16T03:56:45;13.60;1.00
21849;DHT22;11089;49.852;19.700;2022-10-16T03:59:45;13.50;1.00
21849;DHT22;11089;49.852;19.700;2022-10-16T04:02:46;13.60;1.00
21849;DHT22;11089;49.852;19.700;2022-10-16T04:05:47;13.50;1.00
21849;DHT22;11089;49.852;19.700;2022-10-16T04:08:48;13.60;1.00
21849;DHT22;11089;49.852;19.700;2022-10-16T04:11:49;13.60;99.90
21849;DHT22;11089;49.852;19.700;2022-10-16T04:14:50;13.70;1.00
21849;DHT22;11089;49.852;19.700;2022-10-16T04:17:51;13.90;99.90
21849;DHT22;11089;49.852;19.700;2022-10-16T04:20:52;14.00;1.00
21849;DHT22;11089;49.852;19.700;2022-10-16T04:23:53;14.00;1.00
21849;DHT22;11089;49.852;19.700;2022-10-16T04:26:54;14.00;1.00
21849;DHT22;11089;49.852;19.700;2022-10-16T04:29:55;14.10;1.00
21849;DHT22;11089;49.852;19.700;2022-10-16T04:32:56;14.10;1.00
21849;DHT22;11089;49.852;19.700;2022-10-16T04:35:57;14.10;1.00
21849;DHT22;11089;49.852;19.700;2022-10-16T04:38:58;14.10;1.00
21849;DHT22;11089;49.852;19.700;2022-10-16T04:41:59;14.10;99.90
21849;DHT22;11089;49.852;19.700;2022-10-16T04:45:00;14.10;1.00
21849;DHT22;11089;49.852;19.700;2022-10-16T04:48:01;14.10;1.00
21849;DHT22;11089;49.852;19.700;2022-10-16T04:51:02;14.10;1.00
21849;DHT22;11089;49.852;19.700;2022-10-16T04:54:03;14.00;94.20
21849;DHT22;11089;49.852;19.700;2022-10-16T04:57:04;14.00;1.00
21849;DHT22;11089;49.852;19.700;2022-10-16T05:00:05;14.00;1.00
21849;DHT22;11089;49.852;19.700;2022-10-16T05:03:07;14.10;1.00
21849;DHT22;11089;49.852;19.700;2022-10-16T05:06:09;14.10;1.00
21849;DHT22;11089;49.852;19.700;2022-10-16T05:09:10;14.10;1.00
21849;DHT22;11089;49.852;19.700;2022-10-16T05:12:10;14.10;1.00
21849;DHT22;11089;49.852;19.700;2022-10-16T05:15:11;13.70;1.00
21849;DHT22;11089;49.852;19.700;2022-10-16T05:18:12;13.40;99.90
21849;DHT22;11089;49.852;19.700;2022-10-16T05:21:13;13.50;99.90
21849;DHT22;11089;49.852;19.700;2022-10-16T05:24:14;13.40;1.00
21849;DHT22;11089;49.852;19.700;2022-10-16T05:27:15;13.40;1.00
21849;DHT22;11089;49.852;19.700;2022-10-16T05:30:19;13.50;99.90
21849;DHT22;11089;49.852;19.700;2022-10-16T05:33:21;13.80;99.90
21849;DHT22;11089;49.852;19.700;2022-10-16T05:36:22;13.90;1.00
21849;DHT22;11089;49.852;19.700;2022-10-16T05:39:24;14.10;1.00
21849;DHT22;11089;49.852;19.700;2022-10-16T05:42:24;14.20;1.00
21849;DHT22;11089;49.852;19.700;2022-10-16T05:45:26;14.30;99.90
21849;DHT22;11089;49.852;19.700;2022-10-16T05:48:27;14.40;99.90
21849;DHT22;11089;49.852;19.700;2022-10-16T05:51:28;14.50;99.90
21849;DHT22;11089;49.852;19.700;2022-10-16T05:54:29;14.50;1.00
21849;DHT22;11089;49.852;19.700;2022-10-16T05:57:30;14.50;69.80
21849;DHT22;11089;49.852;19.700;2022-10-16T06:00:30;14.50;99.90
21849;DHT22;11089;49.852;19.700;2022-10-16T06:03:31;14.60;99.90
21849;DHT22;11089;49.852;19.700;2022-10-16T06:06:32;14.60;1.00
21849;DHT22;11089;49.852;19.700;2022-10-16T06:09:33;14.60;1.00
21849;DHT22;11089;49.852;19.700;2022-10-16T06:12:34;14.70;1.00
21849;DHT22;11089;49.852;19.700;2022-10-16T06:15:35;14.60;1.00
21849;DHT22;11089;49.852;19.700;2022-10-16T06:18:36;14.70;1.00
21849;DHT22;11089;49.852;19.700;2022-10-16T06:21:36;14.70;1.00
21849;DHT22;11089;49.852;19.700;2022-10-16T06:24:37;14.80;23.70
21849;DHT22;11089;49.852;19.700;2022-10-16T06:27:41;14.80;1.00
21849;DHT22;11089;49.852;19.700;2022-10-16T06:30:42;14.80;16.20
21849;DHT22;11089;49.852;19.700;2022-10-16T06:33:50;15.00;1.00
21849;DHT22;11089;49.852;19.700;2022-10-16T06:36:51;15.10;1.00
21849;DHT22;11089;49.852;19.700;2022-10-16T06:39:52;15.10;99.90
21849;DHT22;11089;49.852;19.700;2022-10-16T06:42:55;15.20;1.00
21849;DHT22;11089;49.852;19.700;2022-10-16T06:45:57;15.20;1.00
21849;DHT22;11089;49.852;19.700;2022-10-16T06:48:57;15.30;99.90
21849;DHT22;11089;49.852;19.700;2022-10-16T06:51:58;15.40;99.90
21849;DHT22;11089;49.852;19.700;2022-10-16T06:54:59;15.50;99.90
21849;DHT22;11089;49.852;19.700;2022-10-16T06:58:00;15.60;99.90
21849;DHT22;11089;49.852;19.700;2022-10-16T07:01:02;15.70;99.90
21849;DHT22;11089;49.852;19.700;2022-10-16T07:04:03;15.90;1.00
21849;DHT22;11089;49.852;19.700;2022-10-16T07:07:04;15.90;1.00
21849;DHT22;11089;49.852;19.700;2022-10-16T07:10:05;16.00;1.00
21849;DHT22;11089;49.852;19.700;2022-10-16T07:13:05;16.00;1.00
21849;DHT22;11089;49.852;19.700;2022-10-16T07:16:19;16.10;99.90
21849;DHT22;11089;49.852;19.700;2022-10-16T07:19:20;16.20;99.90
21849;DHT22;11089;49.852;19.700;2022-10-16T07:22:21;16.30;99.90
21849;DHT22;11089;49.852;19.700;2022-10-16T07:25:22;16.40;99.90
21849;DHT22;11089;49.852;19.700;2022-10-16T07:28:22;16.60;99.90
21849;DHT22;11089;49.852;19.700;2022-10-16T07:31:24;16.90;99.90
21849;DHT22;11089;49.852;19.700;2022-10-16T07:34:25;17.30;48.20
21849;DHT22;11089;49.852;19.700;2022-10-16T07:37:27;17.90;1.00
21849;DHT22;11089;49.852;19.700;2022-10-16T07:40:28;18.30;1.00
21849;DHT22;11089;49.852;19.700;2022-10-16T07:43:29;18.50;99.90
21849;DHT22;11089;49.852;19.700;2022-10-16T07:46:30;18.60;99.90
21849;DHT22;11089;49.852;19.700;2022-10-16T07:49:31;18.70;99.90
21849;DHT22;11089;49.852;19.700;2022-10-16T07:52:32;18.70;99.90
21849;DHT22;11089;49.852;19.700;2022-10-16T07:55:33;18.90;99.90
21849;DHT22;11089;49.852;19.700;2022-10-16T07:58:35;19.00;99.90
21849;DHT22;11089;49.852;19.700;2022-10-16T08:01:39;19.20;99.90
21849;DHT22;11089;49.852;19.700;2022-10-16T08:04:40;19.20;99.90
21849;DHT22;11089;49.852;19.700;2022-10-16T08:07:40;19.20;99.90
21849;DHT22;11089;49.852;19.700;2022-10-16T08:10:41;19.30;99.90
21849;DHT22;11089;49.852;19.700;2022-10-16T08:13:42;19.60;99.90
21849;DHT22;11089;49.852;19.700;2022-10-16T08:16:43;20.00;99.90
21849;DHT22;11089;49.852;19.700;2022-10-16T08:19:46;20.40;99.90
21849;DHT22;11089;49.852;19.700;2022-10-16T08:22:47;21.90;99.90
21849;DHT22;11089;49.852;19.700;2022-10-16T08:25:48;24.10;99.90
21849;DHT22;11089;49.852;19.700;2022-10-16T08:28:52;26.20;99.90
21849;DHT22;11089;49.852;19.700;2022-10-16T08:31:53;25.60;99.90
21849;DHT22;11089;49.852;19.700;2022-10-16T08:34:53;24.30;99.90
21849;DHT22;11089;49.852;19.700;2022-10-16T08:37:54;23.30;99.90
21849;DHT22;11089;49.852;19.700;2022-10-16T08:41:23;22.70;99.90
21849;DHT22;11089;49.852;19.700;2022-10-16T08:48:27;23.80;99.90
21849;DHT22;11089;49.852;19.700;2022-10-16T08:51:33;25.60;99.90
21849;DHT22;11089;49.852;19.700;2022-10-16T08:54:39;24.70;99.90
21849;DHT22;11089;49.852;19.700;2022-10-16T08:57:42;23.80;99.90
21849;DHT22;11089;49.852;19.700;2022-10-16T09:00:55;23.00;99.90
21849;DHT22;11089;49.852;19.700;2022-10-16T09:17:15;21.70;99.90
21849;DHT22;11089;49.852;19.700;2022-10-16T09:23:47;21.20;99.90
21849;DHT22;11089;49.852;19.700;2022-10-16T09:26:48;21.10;99.90
21849;DHT22;11089;49.852;19.700;2022-10-16T09:29:49;21.30;99.90
21849;DHT22;11089;49.852;19.700;2022-10-16T09:32:53;22.10;99.90
21849;DHT22;11089;49.852;19.700;2022-10-16T09:35:56;24.00;99.90
21849;DHT22;11089;49.852;19.700;2022-10-16T09:39:04;26.40;99.90
21849;DHT22;11089;49.852;19.700;2022-10-16T09:42:05;28.30;99.90
21849;DHT22;11089;49.852;19.700;2022-10-16T09:45:20;29.20;99.90
21849;DHT22;11089;49.852;19.700;2022-10-16T09:48:21;28.90;84.00
21849;DHT22;11089;49.852;19.700;2022-10-16T09:51:34;29.80;80.50
21849;DHT22;11089;49.852;19.700;2022-10-16T09:54:36;29.80;77.60
21849;DHT22;11089;49.852;19.700;2022-10-16T09:57:37;29.90;78.30
21849;DHT22;11089;49.852;19.700;2022-10-16T10:00:41;29.80;80.00
21849;DHT22;11089;49.852;19.700;2022-10-16T10:03:50;29.80;66.30
21849;DHT22;11089;49.852;19.700;2022-10-16T10:06:56;29.20;60.90
21849;DHT22;11089;49.852;19.700;2022-10-16T10:09:57;29.30;68.00
21849;DHT22;11089;49.852;19.700;2022-10-16T10:12:58;29.70;66.70
21849;DHT22;11089;49.852;19.700;2022-10-16T10:15:59;28.10;56.30
21849;DHT22;11089;49.852;19.700;2022-10-16T10:19:00;26.90;69.20
21849;DHT22;11089;49.852;19.700;2022-10-16T10:22:01;25.80;67.10
21849;DHT22;11089;49.852;19.700;2022-10-16T10:29:04;25.90;91.30
21849;DHT22;11089;49.852;19.700;2022-10-16T10:35:02;24.90;99.90
21849;DHT22;11089;49.852;19.700;2022-10-16T10:47:59;23.30;99.90
21849;DHT22;11089;49.852;19.700;2022-10-16T10:51:08;23.10;99.90
21849;DHT22;11089;49.852;19.700;2022-10-16T10:57:35;22.80;99.90
21849;DHT22;11089;49.852;19.700;2022-10-16T11:07:03;22.40;99.90
21849;DHT22;11089;49.852;19.700;2022-10-16T11:10:20;22.30;99.90
21849;DHT22;11089;49.852;19.700;2022-10-16T11:16:36;21.90;99.90
21849;DHT22;11089;49.852;19.700;2022-10-16T11:19:58;21.60;99.90
21849;DHT22;11089;49.852;19.700;2022-10-16T11:23:09;21.60;99.90
21849;DHT22;11089;49.852;19.700;2022-10-16T11:26:27;21.50;99.90
21849;DHT22;11089;49.852;19.700;2022-10-16T11:29:31;21.50;99.90
21849;DHT22;11089;49.852;19.700;2022-10-16T11:33:10;21.30;99.90
21849;DHT22;11089;49.852;19.700;2022-10-16T11:36:16;21.10;99.90
21849;DHT22;11089;49.852;19.700;2022-10-16T11:39:34;21.10;99.90
21849;DHT22;11089;49.852;19.700;2022-10-16T11:42:44;21.00;99.90
21849;DHT22;11089;49.852;19.700;2022-10-16T11:46:02;20.90;1.00
21849;DHT22;11089;49.852;19.700;2022-10-16T11:49:12;21.00;1.00
21849;DHT22;11089;49.852;19.700;2022-10-16T11:52:28;20.80;1.00
21849;DHT22;11089;49.852;19.700;2022-10-16T11:55:37;20.70;1.00
21849;DHT22;11089;49.852;19.700;2022-10-16T12:08:48;20.20;1.00
21849;DHT22;11089;49.852;19.700;2022-10-16T12:11:49;20.20;1.00
21849;DHT22;11089;49.852;19.700;2022-10-16T12:15:01;20.20;1.00
21849;DHT22;11089;49.852;19.700;2022-10-16T12:18:02;20.20;1.00
21849;DHT22;11089;49.852;19.700;2022-10-16T12:21:03;20.10;1.00
21849;DHT22;11089;49.852;19.700;2022-10-16T12:27:34;20.10;1.00
21849;DHT22;11089;49.852;19.700;2022-10-16T12:30:36;20.20;99.90
21849;DHT22;11089;49.852;19.700;2022-10-16T12:33:40;20.20;99.90
21849;DHT22;11089;49.852;19.700;2022-10-16T12:36:41;20.20;99.90
21849;DHT22;11089;49.852;19.700;2022-10-16T12:42:54;20.10;99.90
21849;DHT22;11089;49.852;19.700;2022-10-16T12:52:28;20.00;99.90
21849;DHT22;11089;49.852;19.700;2022-10-16T13:23:00;19.70;1.00
21849;DHT22;11089;49.852;19.700;2022-10-16T13:26:26;19.70;1.00
21849;DHT22;11089;49.852;19.700;2022-10-16T13:29:31;19.90;1.00
21849;DHT22;11089;49.852;19.700;2022-10-16T13:32:33;19.70;1.00
21849;DHT22;11089;49.852;19.700;2022-10-16T13:38:36;20.00;1.00
21849;DHT22;11089;49.852;19.700;2022-10-16T13:54:11;19.90;1.00
21849;DHT22;11089;49.852;19.700;2022-10-16T13:57:16;19.90;86.90
21849;DHT22;11089;49.852;19.700;2022-10-16T14:00:23;19.80;99.90
21849;DHT22;11089;49.852;19.700;2022-10-16T14:03:25;19.70;1.00
21849;DHT22;11089;49.852;19.700;2022-10-16T14:06:26;19.70;1.00
21849;DHT22;11089;49.852;19.700;2022-10-16T14:09:29;19.60;69.30
21849;DHT22;11089;49.852;19.700;2022-10-16T14:12:30;19.60;9.90
21849;DHT22;11089;49.852;19.700;2022-10-16T14:15:33;19.60;79.40
21849;DHT22;11089;49.852;19.700;2022-10-16T14:18:35;19.50;99.90
21849;DHT22;11089;49.852;19.700;2022-10-16T14:21:40;19.40;62.30
21849;DHT22;11089;49.852;19.700;2022-10-16T14:24:41;19.50;99.90
21849;DHT22;11089;49.852;19.700;2022-10-16T14:27:42;19.40;1.00
21849;DHT22;11089;49.852;19.700;2022-10-16T14:30:58;19.50;1.00
21849;DHT22;11089;49.852;19.700;2022-10-16T14:34:00;19.40;1.00
21849;DHT22;11089;49.852;19.700;2022-10-16T14:37:09;19.40;1.00
21849;DHT22;11089;49.852;19.700;2022-10-16T14:40:15;19.40;1.00
21849;DHT22;11089;49.852;19.700;2022-10-16T14:43:29;19.30;99.90
21849;DHT22;11089;49.852;19.700;2022-10-16T14:46:36;19.30;1.00
21849;DHT22;11089;49.852;19.700;2022-10-16T14:49:38;19.30;1.00
21849;DHT22;11089;49.852;19.700;2022-10-16T14:52:39;19.20;99.90
21849;DHT22;11089;49.852;19.700;2022-10-16T14:55:41;19.20;99.90
21849;DHT22;11089;49.852;19.700;2022-10-16T14:58:42;18.90;99.90
21849;DHT22;11089;49.852;19.700;2022-10-16T15:01:44;18.80;99.90
21849;DHT22;11089;49.852;19.700;2022-10-16T15:04:45;18.80;1.00
21849;DHT22;11089;49.852;19.700;2022-10-16T15:07:46;18.70;1.00
21849;DHT22;11089;49.852;19.700;2022-10-16T15:10:47;18.60;1.00
21849;DHT22;11089;49.852;19.700;2022-10-16T15:13:48;18.60;1.00
21849;DHT22;11089;49.852;19.700;2022-10-16T15:16:49;18.50;1.00
21849;DHT22;11089;49.852;19.700;2022-10-16T15:19:50;18.50;1.00
21849;DHT22;11089;49.852;19.700;2022-10-16T15:22:51;18.50;1.00
21849;DHT22;11089;49.852;19.700;2022-10-16T15:25:54;18.40;1.00
21849;DHT22;11089;49.852;19.700;2022-10-16T15:28:55;18.30;1.00
21849;DHT22;11089;49.852;19.700;2022-10-16T15:31:56;18.30;1.00
21849;DHT22;11089;49.852;19.700;2022-10-16T15:34:57;18.20;1.00
21849;DHT22;11089;49.852;19.700;2022-10-16T15:37:58;18.20;1.00
21849;DHT22;11089;49.852;19.700;2022-10-16T15:40:59;18.00;1.00
21849;DHT22;11089;49.852;19.700;2022-10-16T15:44:00;18.00;1.00
21849;DHT22;11089;49.852;19.700;2022-10-16T15:47:01;17.80;1.00
21849;DHT22;11089;49.852;19.700;2022-10-16T15:50:03;17.60;82.80
21849;DHT22;11089;49.852;19.700;2022-10-16T15:53:03;17.50;99.90
21849;DHT22;11089;49.852;19.700;2022-10-16T15:56:06;17.40;99.90
21849;DHT22;11089;49.852;19.700;2022-10-16T15:59:07;17.30;99.90
21849;DHT22;11089;49.852;19.700;2022-10-16T16:02:09;17.30;99.90
21849;DHT22;11089;49.852;19.700;2022-10-16T16:05:11;17.10;99.90
21849;DHT22;11089;49.852;19.700;2022-10-16T16:08:11;17.10;99.90
21849;DHT22;11089;49.852;19.700;2022-10-16T16:11:14;17.00;99.90
21849;DHT22;11089;49.852;19.700;2022-10-16T16:14:15;16.80;99.90
21849;DHT22;11089;49.852;19.700;2022-10-16T16:17:16;16.60;1.00
21849;DHT22;11089;49.852;19.700;2022-10-16T16:20:17;16.60;1.00
21849;DHT22;11089;49.852;19.700;2022-10-16T16:23:18;16.70;1.00
21849;DHT22;11089;49.852;19.700;2022-10-16T16:26:25;16.60;1.00
21849;DHT22;11089;49.852;19.700;2022-10-16T16:29:26;16.60;1.00
21849;DHT22;11089;49.852;19.700;2022-10-16T16:32:27;16.50;1.00
21849;DHT22;11089;49.852;19.700;2022-10-16T16:35:28;16.30;99.90
21849;DHT22;11089;49.852;19.700;2022-10-16T16:38:29;16.30;1.00
21849;DHT22;11089;49.852;19.700;2022-10-16T16:41:30;16.20;99.90
21849;DHT22;11089;49.852;19.700;2022-10-16T16:44:32;16.30;99.90
21849;DHT22;11089;49.852;19.700;2022-10-16T16:47:33;16.30;1.00
21849;DHT22;11089;49.852;19.700;2022-10-16T16:50:38;16.30;1.00
21849;DHT22;11089;49.852;19.700;2022-10-16T16:53:39;16.20;99.90
21849;DHT22;11089;49.852;19.700;2022-10-16T16:56:40;16.20;1.00
21849;DHT22;11089;49.852;19.700;2022-10-16T16:59:43;16.30;1.00
21849;DHT22;11089;49.852;19.700;2022-10-16T17:02:48;16.30;1.00
21849;DHT22;11089;49.852;19.700;2022-10-16T17:06:00;16.30;99.90
21849;DHT22;11089;49.852;19.700;2022-10-16T17:09:03;16.20;1.00
21849;DHT22;11089;49.852;19.700;2022-10-16T17:12:04;16.20;1.00
21849;DHT22;11089;49.852;19.700;2022-10-16T17:15:05;16.40;1.00
21849;DHT22;11089;49.852;19.700;2022-10-16T17:18:07;16.40;1.00
21849;DHT22;11089;49.852;19.700;2022-10-16T17:21:08;16.60;1.00
21849;DHT22;11089;49.852;19.700;2022-10-16T17:24:10;16.60;1.00
21849;DHT22;11089;49.852;19.700;2022-10-16T17:27:11;16.70;99.90
21849;DHT22;11089;49.852;19.700;2022-10-16T17:30:12;16.80;99.90
21849;DHT22;11089;49.852;19.700;2022-10-16T17:33:13;16.80;99.90
21849;DHT22;11089;49.852;19.700;2022-10-16T17:36:14;16.80;99.90
21849;DHT22;11089;49.852;19.700;2022-10-16T17:39:16;16.70;99.90
21849;DHT22;11089;49.852;19.700;2022-10-16T17:42:17;16.60;1.00
21849;DHT22;11089;49.852;19.700;2022-10-16T17:45:18;16.50;99.90
21849;DHT22;11089;49.852;19.700;2022-10-16T17:48:19;16.50;99.90
21849;DHT22;11089;49.852;19.700;2022-10-16T17:51:26;16.40;1.00
21849;DHT22;11089;49.852;19.700;2022-10-16T17:54:28;16.30;1.00
21849;DHT22;11089;49.852;19.700;2022-10-16T17:57:28;16.10;1.00
21849;DHT22;11089;49.852;19.700;2022-10-16T18:00:29;15.90;99.90
21849;DHT22;11089;49.852;19.700;2022-10-16T18:03:30;15.90;99.90
21849;DHT22;11089;49.852;19.700;2022-10-16T18:06:32;15.80;99.90
21849;DHT22;11089;49.852;19.700;2022-10-16T18:09:33;15.80;99.90
21849;DHT22;11089;49.852;19.700;2022-10-16T18:12:34;15.80;99.90
21849;DHT22;11089;49.852;19.700;2022-10-16T18:15:35;15.80;99.90
21849;DHT22;11089;49.852;19.700;2022-10-16T18:18:40;15.80;99.90
21849;DHT22;11089;49.852;19.700;2022-10-16T18:21:42;15.80;99.90
21849;DHT22;11089;49.852;19.700;2022-10-16T18:24:43;15.80;99.90
21849;DHT22;11089;49.852;19.700;2022-10-16T18:27:44;15.80;99.90
21849;DHT22;11089;49.852;19.700;2022-10-16T18:30:52;15.80;99.90
21849;DHT22;11089;49.852;19.700;2022-10-16T18:33:54;15.90;99.90
21849;DHT22;11089;49.852;19.700;2022-10-16T18:36:55;15.90;99.90
21849;DHT22;11089;49.852;19.700;2022-10-16T18:39:57;15.80;99.90
21849;DHT22;11089;49.852;19.700;2022-10-16T18:42:57;15.80;99.90
21849;DHT22;11089;49.852;19.700;2022-10-16T18:46:01;15.60;99.90
21849;DHT22;11089;49.852;19.700;2022-10-16T18:49:02;15.60;99.90
21849;DHT22;11089;49.852;19.700;2022-10-16T18:52:04;15.50;99.90
21849;DHT22;11089;49.852;19.700;2022-10-16T18:55:05;15.60;1.00
21849;DHT22;11089;49.852;19.700;2022-10-16T18:58:06;15.60;1.00
21849;DHT22;11089;49.852;19.700;2022-10-16T19:01:12;15.60;99.90
21849;DHT22;11089;49.852;19.700;2022-10-16T19:04:15;15.50;1.00
21849;DHT22;11089;49.852;19.700;2022-10-16T19:07:16;15.50;1.00
21849;DHT22;11089;49.852;19.700;2022-10-16T19:10:17;15.40;1.00
21849;DHT22;11089;49.852;19.700;2022-10-16T19:13:18;15.40;1.00
21849;DHT22;11089;49.852;19.700;2022-10-16T19:16:23;15.50;1.00
21849;DHT22;11089;49.852;19.700;2022-10-16T19:19:24;15.60;1.00
21849;DHT22;11089;49.852;19.700;2022-10-16T19:22:26;15.70;99.90
21849;DHT22;11089;49.852;19.700;2022-10-16T19:25:30;15.80;99.90
21849;DHT22;11089;49.852;19.700;2022-10-16T19:28:31;15.70;99.90
21849;DHT22;11089;49.852;19.700;2022-10-16T19:31:32;15.80;99.90
21849;DHT22;11089;49.852;19.700;2022-10-16T19:34:34;15.80;99.90
21849;DHT22;11089;49.852;19.700;2022-10-16T19:37:35;15.80;99.90
21849;DHT22;11089;49.852;19.700;2022-10-16T19:40:36;15.80;1.00
21849;DHT22;11089;49.852;19.700;2022-10-16T19:43:38;15.80;99.90
21849;DHT22;11089;49.852;19.700;2022-10-16T19:46:39;15.80;99.90
21849;DHT22;11089;49.852;19.700;2022-10-16T19:49:40;15.70;99.90
21849;DHT22;11089;49.852;19.700;2022-10-16T19:52:40;15.70;99.90
21849;DHT22;11089;49.852;19.700;2022-10-16T19:55:41;15.70;99.90
21849;DHT22;11089;49.852;19.700;2022-10-16T19:58:42;15.70;99.90
21849;DHT22;11089;49.852;19.700;2022-10-16T20:01:45;15.70;99.90
21849;DHT22;11089;49.852;19.700;2022-10-16T20:04:46;15.70;99.90
21849;DHT22;11089;49.852;19.700;2022-10-16T20:07:47;15.60;99.90
21849;DHT22;11089;49.852;19.700;2022-10-16T20:10:57;15.60;99.90
21849;DHT22;11089;49.852;19.700;2022-10-16T20:13:58;15.50;99.90
21849;DHT22;11089;49.852;19.700;2022-10-16T20:17:00;15.60;99.90
21849;DHT22;11089;49.852;19.700;2022-10-16T20:20:02;15.60;99.90
21849;DHT22;11089;49.852;19.700;2022-10-16T20:23:03;15.60;99.90
21849;DHT22;11089;49.852;19.700;2022-10-16T20:26:05;15.60;99.90
21849;DHT22;11089;49.852;19.700;2022-10-16T20:29:06;15.50;99.90
21849;DHT22;11089;49.852;19.700;2022-10-16T20:32:07;15.60;99.90
21849;DHT22;11089;49.852;19.700;2022-10-16T20:35:08;15.60;99.90
21849;DHT22;11089;49.852;19.700;2022-10-16T20:38:09;15.50;99.90
21849;DHT22;11089;49.852;19.700;2022-10-16T20:41:14;15.60;99.90
21849;DHT22;11089;49.852;19.700;2022-10-16T20:44:15;15.50;99.90
21849;DHT22;11089;49.852;19.700;2022-10-16T20:47:16;15.50;99.90
21849;DHT22;11089;49.852;19.700;2022-10-16T20:50:17;15.50;99.90
21849;DHT22;11089;49.852;19.700;2022-10-16T20:53:18;15.50;99.90
21849;DHT22;11089;49.852;19.700;2022-10-16T20:56:19;15.50;99.90
21849;DHT22;11089;49.852;19.700;2022-10-16T20:59:20;15.60;84.70
21849;DHT22;11089;49.852;19.700;2022-10-16T21:02:21;15.50;99.90
21849;DHT22;11089;49.852;19.700;2022-10-16T21:05:22;15.50;99.90
21849;DHT22;11089;49.852;19.700;2022-10-16T21:08:23;15.50;99.90
21849;DHT22;11089;49.852;19.700;2022-10-16T21:11:26;15.50;99.90
21849;DHT22;11089;49.852;19.700;2022-10-16T21:14:27;15.50;99.90
21849;DHT22;11089;49.852;19.700;2022-10-16T21:17:28;15.40;99.90